Time;durP1;ratioP1;P1;durP2;ratioP2;P2;SDS_P1;SDS_P2;PMS_P1;PMS_P2;Temp;Humidity;BMP_temperature;BMP_pressure;BME280_temperature;BME280_humidity;BME280_pressure;Samples;Min_cycle;Max_cycle;Signal;HPM_P1;HPM_P2
2023/12/27 00:04:52;;;;;;;4.70;3.42;;;;;;;10.01;82.15;100746.63;10345030;28;20132;-64
2023/12/27 00:09:53;;;;;;;6.90;3.67;;;;;;;9.95;81.84;100736.41;10339954;28;20349;-64
2023/12/27 00:14:55;;;;;;;5.55;2.97;;;;;;;9.87;83.04;100750.25;10347527;28;20053;-64
2023/12/27 00:19:57;;;;;;;7.03;3.28;;;;;;;9.86;83.74;100753.00;10341697;28;20068;-63
2023/12/27 00:24:59;;;;;;;6.03;3.83;;;;;;;9.81;83.75;100750.66;10345587;28;20049;-64
2023/12/27 00:30:01;;;;;;;8.10;3.53;;;;;;;9.85;84.42;100752.16;10347942;28;20045;-63
2023/12/27 00:35:02;;;;;;;5.22;3.30;;;;;;;9.78;85.38;100766.84;10344663;28;20103;-64
2023/12/27 00:40:05;;;;;;;5.22;3.38;;;;;;;9.84;85.52;100755.78;10352038;28;20131;-64
2023/12/27 00:45:07;;;;;;;5.18;3.92;;;;;;;9.86;85.64;100763.66;10343615;28;20053;-64
2023/12/27 00:50:10;;;;;;;5.57;3.33;;;;;;;9.89;84.86;100758.13;10344813;28;20042;-64
2023/12/27 00:55:12;;;;;;;4.40;3.33;;;;;;;9.89;85.65;100753.66;10348994;28;20046;-64
2023/12/27 01:00:13;;;;;;;5.05;3.47;;;;;;;9.88;85.95;100757.28;10342937;28;20056;-64
2023/12/27 01:05:15;;;;;;;4.60;3.22;;;;;;;9.93;85.60;100758.78;10343432;28;20048;-64
2023/12/27 01:10:17;;;;;;;5.60;3.80;;;;;;;9.91;86.81;100754.41;10344795;28;20053;-64
2023/12/27 01:15:19;;;;;;;11.93;4.18;;;;;;;9.85;87.09;100746.84;10326733;28;20053;-64
2023/12/27 01:20:20;;;;;;;6.53;3.95;;;;;;;9.76;88.16;100762.56;10347076;28;20050;-64
2023/12/27 01:25:22;;;;;;;4.45;3.40;;;;;;;9.73;88.87;100748.56;10343427;28;20920;-65
2023/12/27 01:30:24;;;;;;;6.18;4.10;;;;;;;9.73;89.12;100766.31;10348095;28;20045;-63
2023/12/27 01:35:26;;;;;;;6.30;4.07;;;;;;;9.72;89.26;100768.09;10342786;28;20057;-65
2023/12/27 01:40:27;;;;;;;7.53;4.47;;;;;;;9.76;89.66;100768.75;10330769;28;20104;-64
2023/12/27 01:45:29;;;;;;;4.18;3.78;;;;;;;9.79;89.23;100760.56;10341171;28;20053;-64
2023/12/27 01:50:30;;;;;;;4.68;3.80;;;;;;;9.78;88.98;100772.16;10335753;28;20077;-64
2023/12/27 01:55:32;;;;;;;5.25;3.95;;;;;;;9.80;89.62;100775.56;10340844;28;20084;-64
2023/12/27 02:00:39;;;;;;;5.20;4.38;;;;;;;9.75;89.52;100766.22;10334140;28;20128;-64
2023/12/27 02:05:41;;;;;;;6.78;4.93;;;;;;;9.73;90.67;100766.31;10344906;28;20049;-64
2023/12/27 02:10:43;;;;;;;4.68;4.15;;;;;;;9.71;90.98;100750.47;10345590;28;20089;-69
2023/12/27 02:15:46;;;;;;;5.30;4.10;;;;;;;9.82;89.88;100778.13;10353142;28;20140;-65
2023/12/27 02:20:48;;;;;;;6.65;3.97;;;;;;;9.73;89.10;100779.59;10339361;28;20057;-65
2023/12/27 02:25:52;;;;;;;6.68;4.68;;;;;;;9.53;90.29;100763.22;10349113;28;20069;-63
2023/12/27 02:30:54;;;;;;;5.70;3.30;;;;;;;9.65;89.93;100760.66;10323929;28;20777;-64
2023/12/27 02:35:56;;;;;;;5.85;3.90;;;;;;;9.57;88.61;100741.75;10332397;28;20142;-64
2023/12/27 02:40:59;;;;;;;8.23;4.10;;;;;;;9.61;89.09;100748.53;10345427;28;20057;-63
2023/12/27 02:46:01;;;;;;;4.50;3.13;;;;;;;9.58;88.59;100749.63;10340761;28;20061;-66
2023/12/27 02:51:03;;;;;;;6.03;4.70;;;;;;;9.48;89.42;100749.38;10341269;28;20793;-66
2023/12/27 02:56:05;;;;;;;4.80;3.72;;;;;;;9.57;89.85;100742.59;10340237;28;20099;-64
2023/12/27 03:01:08;;;;;;;6.18;4.10;;;;;;;9.59;89.44;100742.47;10351434;28;20084;-64
2023/12/27 03:06:09;;;;;;;6.25;4.78;;;;;;;9.53;90.40;100736.66;10371910;28;20061;-64
2023/12/27 03:11:11;;;;;;;6.95;4.97;;;;;;;9.53;89.67;100731.31;10352831;28;20057;-64
2023/12/27 03:16:13;;;;;;;8.73;5.22;;;;;;;9.42;89.35;100706.44;10341594;28;20066;-65
2023/12/27 03:21:14;;;;;;;7.65;4.57;;;;;;;9.59;89.75;100721.22;10338442;28;20200;-65
2023/12/27 03:26:17;;;;;;;11.32;8.88;;;;;;;9.57;91.02;100707.19;10344076;28;20053;-64
2023/12/27 03:31:18;;;;;;;11.95;8.15;;;;;;;9.47;92.23;100705.19;10342078;28;20753;-64
2023/12/27 03:36:20;;;;;;;7.93;5.75;;;;;;;9.50;88.36;100706.75;10342256;28;20056;-64
2023/12/27 03:41:24;;;;;;;8.77;5.85;;;;;;;9.44;88.30;100699.19;10336760;28;20052;-64
2023/12/27 03:46:26;;;;;;;6.20;5.20;;;;;;;9.49;87.69;100697.94;10343008;28;20700;-64
2023/12/27 03:51:27;;;;;;;7.25;5.43;;;;;;;9.49;87.32;100692.63;10339122;28;20123;-64
2023/12/27 03:56:29;;;;;;;6.90;5.32;;;;;;;9.50;86.96;100688.16;10340195;28;20060;-64
2023/12/27 04:01:30;;;;;;;10.63;5.68;;;;;;;9.49;86.82;100692.63;10343203;28;20088;-64
2023/12/27 04:06:34;;;;;;;4.73;3.87;;;;;;;9.43;86.99;100692.19;10333108;28;20064;-65
2023/12/27 04:11:45;;;;;;;6.90;5.80;;;;;;;9.23;87.26;100674.97;10349904;28;20287;-65
2023/12/27 04:16:47;;;;;;;6.38;5.47;;;;;;;9.13;87.23;100680.91;10336905;28;20159;-65
2023/12/27 04:21:49;;;;;;;7.63;6.85;;;;;;;9.29;88.15;100698.44;10335818;28;20090;-65
2023/12/27 04:26:50;;;;;;;9.20;6.07;;;;;;;9.28;87.74;100696.75;10335429;28;20053;-65
2023/12/27 04:31:52;;;;;;;7.47;6.32;;;;;;;9.18;88.41;100694.69;10337965;28;20226;-64
2023/12/27 04:36:53;;;;;;;7.45;6.30;;;;;;;9.17;88.20;100687.72;10337038;28;20060;-64
2023/12/27 04:41:54;;;;;;;6.43;5.82;;;;;;;9.23;87.67;100682.91;10336425;28;20057;-64
2023/12/27 04:46:56;;;;;;;8.07;7.15;;;;;;;9.31;88.02;100696.56;10339849;28;21224;-64
2023/12/27 04:51:57;;;;;;;9.27;5.72;;;;;;;9.27;88.35;100695.06;10335853;28;20046;-64
2023/12/27 04:56:59;;;;;;;12.50;6.93;;;;;;;9.23;88.66;100704.19;10338309;28;20045;-64
2023/12/27 05:02:00;;;;;;;8.48;5.60;;;;;;;9.33;89.20;100702.59;10361718;28;20147;-65
2023/12/27 05:07:02;;;;;;;8.95;6.10;;;;;;;9.25;89.07;100691.63;10345625;28;20046;-65
2023/12/27 05:12:05;;;;;;;7.65;5.93;;;;;;;9.08;90.04;100682.16;10346385;28;20042;-64
2023/12/27 05:17:06;;;;;;;7.53;5.95;;;;;;;9.23;89.66;100701.53;10343374;28;20049;-65
2023/12/27 05:22:08;;;;;;;6.85;5.85;;;;;;;9.24;90.26;100687.28;10345088;28;20069;-65
2023/12/27 05:27:14;;;;;;;7.00;5.68;;;;;;;9.19;89.25;100691.09;10341295;28;20120;-65
2023/12/27 05:32:15;;;;;;;8.80;6.85;;;;;;;9.24;89.98;100682.81;10342186;28;20522;-64
2023/12/27 05:37:17;;;;;;;8.15;6.10;;;;;;;9.19;89.80;100669.00;10353207;28;20677;-65
2023/12/27 05:42:18;;;;;;;7.25;5.60;;;;;;;9.18;90.29;100673.44;10344612;28;20562;-64
2023/12/27 05:47:20;;;;;;;8.05;6.70;;;;;;;9.23;89.72;100664.31;10344592;28;20064;-64
2023/12/27 05:52:21;;;;;;;14.35;8.50;;;;;;;9.33;89.44;100662.75;10339331;28;20057;-64
2023/12/27 05:57:23;;;;;;;12.85;8.30;;;;;;;9.39;89.00;100670.28;10349310;28;20578;-66
2023/12/27 06:02:25;;;;;;;14.65;8.05;;;;;;;9.29;88.69;100653.28;10357993;28;20639;-63
2023/12/27 06:07:26;;;;;;;10.85;7.50;;;;;;;9.37;88.79;100661.59;10346553;28;20076;-64
2023/12/27 06:12:28;;;;;;;6.32;5.70;;;;;;;9.36;88.96;100662.53;10340813;28;20617;-64
2023/12/27 06:17:30;;;;;;;7.07;5.68;;;;;;;9.38;89.12;100663.28;10324090;28;20903;-64
2023/12/27 06:22:32;;;;;;;5.45;4.95;;;;;;;9.37;89.10;100657.13;10338196;28;20068;-64
2023/12/27 06:27:33;;;;;;;7.53;5.70;;;;;;;9.37;88.58;100662.44;10339767;28;20269;-65
2023/12/27 06:32:35;;;;;;;8.55;6.13;;;;;;;9.42;89.05;100670.06;10325983;28;20658;-65
2023/12/27 06:37:37;;;;;;;7.18;5.53;;;;;;;9.43;88.90;100666.47;10344847;28;20140;-64
2023/12/27 06:42:42;;;;;;;9.77;5.60;;;;;;;9.36;89.59;100659.88;10337055;28;20054;-64
2023/12/27 06:47:44;;;;;;;7.95;5.40;;;;;;;9.47;89.71;100667.09;10344963;28;20085;-63
2023/12/27 06:52:45;;;;;;;7.00;5.50;;;;;;;9.43;90.00;100665.59;10340197;28;20061;-64
2023/12/27 06:57:48;;;;;;;7.72;6.18;;;;;;;9.37;90.92;100661.59;10342844;28;20123;-64
2023/12/27 07:02:50;;;;;;;6.35;5.75;;;;;;;9.25;91.48;100651.78;10337830;28;20143;-64
2023/12/27 07:07:53;;;;;;;6.95;5.82;;;;;;;9.34;92.53;100665.31;10338270;28;20056;-64
2023/12/27 07:12:54;;;;;;;7.63;6.05;;;;;;;9.36;92.38;100663.38;10345723;28;20155;-62
2023/12/27 07:17:58;;;;;;;8.30;7.47;;;;;;;9.37;92.35;100658.94;10339861;28;20112;-61
2023/12/27 07:23:00;;;;;;;7.38;6.55;;;;;;;9.41;92.36;100656.91;10344422;28;20054;-62
2023/12/27 07:28:02;;;;;;;7.05;6.35;;;;;;;9.32;92.94;100642.44;10335643;28;20061;-60
2023/12/27 07:33:04;;;;;;;7.30;6.55;;;;;;;9.33;92.62;100652.13;10338557;28;20776;-61
2023/12/27 07:38:06;;;;;;;9.50;6.75;;;;;;;9.34;93.64;100660.00;10329937;28;20128;-62
2023/12/27 07:43:09;;;;;;;6.30;5.68;;;;;;;9.38;93.70;100668.59;10341026;28;20057;-61
2023/12/27 07:48:13;;;;;;;8.77;6.50;;;;;;;9.41;94.02;100686.97;10338794;28;21280;-62
2023/12/27 07:53:16;;;;;;;9.95;7.10;;;;;;;9.47;93.42;100675.06;10342210;28;20700;-62
2023/12/27 07:58:18;;;;;;;8.23;7.43;;;;;;;9.45;93.36;100669.88;10362398;28;20154;-62
2023/12/27 08:03:20;;;;;;;10.10;8.10;;;;;;;9.45;93.45;100653.91;10344679;28;20046;-64
2023/12/27 08:08:21;;;;;;;20.42;16.58;;;;;;;9.28;93.94;100635.66;10349796;28;20042;-63
2023/12/27 08:13:22;;;;;;;18.55;15.95;;;;;;;9.30;94.64;100644.38;10351485;28;20060;-63
2023/12/27 08:18:24;;;;;;;14.15;11.65;;;;;;;9.33;94.99;100625.56;10337118;28;20806;-63
2023/12/27 08:23:25;;;;;;;15.30;13.27;;;;;;;9.31;95.15;100617.69;10337077;28;20054;-63
2023/12/27 08:28:29;;;;;;;10.80;9.15;;;;;;;9.31;95.65;100615.03;10336713;28;20057;-60
2023/12/27 08:33:31;;;;;;;20.63;15.88;;;;;;;9.33;95.70;100617.59;10346014;28;20050;-62
2023/12/27 08:38:34;;;;;;;10.90;9.63;;;;;;;9.39;95.67;100622.47;10345655;28;20042;-63
2023/12/27 08:43:37;;;;;;;23.70;21.92;;;;;;;9.43;95.96;100600.03;10344019;28;20064;-66
2023/12/27 08:48:39;;;;;;;12.73;11.50;;;;;;;9.34;97.18;100558.19;10355414;28;20058;-65
2023/12/27 08:53:41;;;;;;;10.38;9.38;;;;;;;9.45;97.52;100568.88;10339599;28;20045;-66
2023/12/27 08:58:42;;;;;;;8.15;7.18;;;;;;;9.52;97.36;100575.47;10348234;28;20061;-63
2023/12/27 09:03:44;;;;;;;7.97;7.22;;;;;;;9.46;97.05;100581.22;10354526;28;20052;-62
2023/12/27 09:08:49;;;;;;;7.88;5.47;;;;;;;9.48;97.49;100595.25;10343786;28;20058;-63
2023/12/27 09:13:50;;;;;;;7.10;5.30;;;;;;;9.47;98.10;100604.19;10343650;28;20056;-63
2023/12/27 09:18:52;;;;;;;5.65;4.88;;;;;;;9.60;98.08;100611.28;10340449;28;22256;-62
2023/12/27 09:23:54;;;;;;;11.27;10.10;;;;;;;9.67;98.05;100608.09;10338357;28;20059;-60
2023/12/27 09:28:57;;;;;;;7.47;4.32;;;;;;;9.69;97.47;100607.97;10327975;28;20197;-62
2023/12/27 09:33:59;;;;;;;7.40;5.07;;;;;;;9.65;98.03;100601.19;10335266;28;20084;-63
2023/12/27 09:39:01;;;;;;;6.45;5.50;;;;;;;9.84;98.77;100584.75;10340350;28;20050;-62
2023/12/27 09:44:06;;;;;;;4.55;3.72;;;;;;;9.96;96.89;100561.75;10344330;28;20477;-62
2023/12/27 09:49:08;;;;;;;7.43;4.07;;;;;;;10.20;96.48;100575.91;10340000;28;20050;-61
2023/12/27 09:54:10;;;;;;;8.55;7.75;;;;;;;10.30;95.94;100569.91;10340596;28;20435;-62
2023/12/27 09:59:19;;;;;;;4.95;4.45;;;;;;;10.40;94.99;100549.66;10344165;28;20053;-63
2023/12/27 10:04:29;;;;;;;9.45;7.53;;;;;;;10.52;95.08;100548.72;10337012;28;20049;-61
2023/12/27 10:09:33;;;;;;;6.72;4.93;;;;;;;10.48;95.15;100547.28;10340899;28;20058;-62
2023/12/27 10:14:37;;;;;;;3.92;3.17;;;;;;;10.34;94.36;100524.34;10345393;28;20140;-62
2023/12/27 10:19:40;;;;;;;5.33;3.33;;;;;;;10.32;95.19;100526.25;10325150;28;20061;-62
2023/12/27 10:24:41;;;;;;;6.10;3.92;;;;;;;10.39;95.86;100519.53;10337331;28;20143;-63
2023/12/27 10:29:49;;;;;;;4.15;3.10;;;;;;;10.42;94.65;100526.47;10348856;28;20073;-63
2023/12/27 10:34:51;;;;;;;6.95;6.38;;;;;;;10.25;92.97;100533.84;10336191;28;20049;-62
2023/12/27 10:39:54;;;;;;;20.83;19.05;;;;;;;10.30;93.07;100517.56;10352298;28;20132;-63
2023/12/27 10:44:57;;;;;;;5.28;3.63;;;;;;;10.35;92.93;100480.81;10339450;28;20065;-63
2023/12/27 10:50:04;;;;;;;16.33;14.80;;;;;;;10.48;92.39;100470.09;10345539;28;20550;-62
2023/12/27 10:55:12;;;;;;;8.07;4.10;;;;;;;10.47;88.58;100457.75;10335617;28;20046;-62
2023/12/27 11:00:14;;;;;;;3.53;1.90;;;;;;;10.58;86.69;100435.63;10336792;28;20065;-62
2023/12/27 11:05:17;;;;;;;5.53;2.60;;;;;;;10.95;82.79;100446.91;10338208;28;20061;-61
2023/12/27 11:10:20;;;;;;;2.65;1.63;;;;;;;11.04;79.90;100436.50;10330867;28;20056;-62
2023/12/27 11:15:21;;;;;;;4.38;1.23;;;;;;;10.99;81.02;100439.53;10336036;28;20581;-62
2023/12/27 11:20:25;;;;;;;2.67;1.42;;;;;;;10.85;80.68;100437.94;10328450;28;20104;-62
2023/12/27 11:25:27;;;;;;;2.70;1.08;;;;;;;10.74;82.29;100408.66;10345754;28;20512;-63
2023/12/27 11:30:32;;;;;;;5.78;4.93;;;;;;;10.76;82.69;100390.72;10344219;28;20061;-63
2023/12/27 11:35:34;;;;;;;2.83;1.52;;;;;;;10.67;82.74;100372.81;10336749;28;20054;-62
2023/12/27 11:40:39;;;;;;;3.40;1.20;;;;;;;10.54;83.17;100371.13;10326641;28;20078;-63
2023/12/27 11:45:54;;;;;;;4.57;2.03;;;;;;;10.60;83.48;100383.97;10339478;28;20050;-62
2023/12/27 11:50:57;;;;;;;3.08;1.77;;;;;;;10.58;84.27;100377.94;10337976;28;20558;-62
2023/12/27 11:56:01;;;;;;;5.18;1.95;;;;;;;10.65;83.76;100356.13;10353677;28;20054;-63
2023/12/27 12:01:27;;;;;;;3.15;1.52;;;;;;;10.75;83.73;100352.63;10338781;28;20049;-62
2023/12/27 12:06:54;;;;;;;5.82;2.90;;;;;;;11.52;80.65;100347.38;10324711;28;20050;-66
2023/12/27 12:11:56;;;;;;;4.82;2.03;;;;;;;11.64;79.51;100338.34;10342660;28;20049;-63
2023/12/27 12:16:58;;;;;;;4.22;3.47;;;;;;;12.12;75.42;100297.00;10328574;28;20058;-63
2023/12/27 12:22:01;;;;;;;3.25;2.25;;;;;;;13.00;71.38;100311.50;10323931;28;20054;-63
2023/12/27 12:27:02;;;;;;;5.20;3.17;;;;;;;13.99;66.34;100312.34;10332795;28;20057;-62
2023/12/27 12:32:04;;;;;;;4.18;2.80;;;;;;;13.70;68.61;100297.19;10328976;28;20121;-65
2023/12/27 12:37:06;;;;;;;11.63;8.98;;;;;;;13.92;67.44;100306.72;10322562;28;20330;-63
2023/12/27 12:42:07;;;;;;;6.00;5.35;;;;;;;13.96;66.45;100281.34;10342875;28;20072;-62
2023/12/27 12:47:09;;;;;;;2.38;1.67;;;;;;;13.69;66.54;100307.06;10336577;28;20054;-63
2023/12/27 12:52:11;;;;;;;3.67;1.73;;;;;;;12.79;69.71;100292.03;10325692;28;20536;-62
2023/12/27 12:57:12;;;;;;;3.72;1.65;;;;;;;12.41;72.06;100293.59;10342441;28;20724;-63
2023/12/27 13:02:15;;;;;;;15.95;13.02;;;;;;;12.10;73.31;100274.91;10323971;28;21100;-63
2023/12/27 13:07:17;;;;;;;8.40;4.90;;;;;;;11.98;74.48;100287.47;10336864;28;20229;-63
2023/12/27 13:12:18;;;;;;;5.57;2.33;;;;;;;11.73;74.37;100284.22;10329239;28;20532;-64
2023/12/27 13:17:20;;;;;;;3.35;2.35;;;;;;;11.52;74.66;100278.88;10325217;28;20487;-63
2023/12/27 13:22:21;;;;;;;3.40;2.45;;;;;;;11.42;75.80;100264.63;10342842;28;20064;-62
2023/12/27 13:27:23;;;;;;;3.97;2.45;;;;;;;11.36;76.15;100265.16;10347350;28;20200;-63
2023/12/27 13:32:24;;;;;;;6.63;2.42;;;;;;;11.41;76.09;100242.47;10345069;28;20127;-63
2023/12/27 13:37:26;;;;;;;4.55;2.42;;;;;;;11.67;74.49;100234.91;10340420;28;20180;-62
2023/12/27 13:42:29;;;;;;;5.60;3.00;;;;;;;11.48;74.36;100229.47;10348981;28;20923;-64
2023/12/27 13:47:30;;;;;;;4.68;3.80;;;;;;;11.38;75.22;100241.88;10317085;28;20059;-61
2023/12/27 13:52:33;;;;;;;5.85;2.47;;;;;;;11.31;75.79;100220.25;10338170;28;20068;-62
2023/12/27 13:57:35;;;;;;;3.33;2.63;;;;;;;11.31;76.24;100214.91;10343881;28;20615;-63
2023/12/27 14:02:37;;;;;;;5.35;2.35;;;;;;;11.27;75.44;100218.81;10350675;28;20098;-63
2023/12/27 14:07:38;;;;;;;3.30;2.17;;;;;;;11.10;76.27;100207.75;10343422;28;20084;-63
2023/12/27 14:12:42;;;;;;;4.53;2.45;;;;;;;11.14;76.53;100216.34;10343538;28;20068;-63
2023/12/27 14:17:49;;;;;;;3.35;2.00;;;;;;;11.03;76.52;100211.88;10341164;28;20050;-63
2023/12/27 14:22:51;;;;;;;4.10;2.50;;;;;;;10.88;76.59;100205.16;10339415;28;20050;-61
2023/12/27 14:27:53;;;;;;;4.40;1.90;;;;;;;10.81;77.70;100203.97;10338341;28;20095;-63
2023/12/27 14:32:56;;;;;;;4.47;2.22;;;;;;;10.66;77.60;100192.75;10339871;28;20049;-62
2023/12/27 14:37:58;;;;;;;3.13;2.00;;;;;;;10.55;78.00;100181.22;10342340;28;20065;-63
2023/12/27 14:43:01;;;;;;;3.30;2.28;;;;;;;10.60;77.76;100194.97;10336208;28;20059;-65
2023/12/27 14:48:03;;;;;;;2.63;2.05;;;;;;;10.65;78.28;100175.97;10341057;28;20054;-62
2023/12/27 14:53:05;;;;;;;5.13;2.40;;;;;;;10.57;77.62;100195.22;10342731;28;20604;-62
2023/12/27 14:58:06;;;;;;;6.60;3.17;;;;;;;10.61;78.06;100196.66;10342492;28;20053;-63
2023/12/27 15:03:10;;;;;;;18.52;12.55;;;;;;;10.60;77.84;100194.97;10324609;28;20314;-62
2023/12/27 15:08:12;;;;;;;7.00;3.17;;;;;;;10.55;77.91;100197.19;10330808;28;20046;-62
2023/12/27 15:13:15;;;;;;;3.33;1.90;;;;;;;10.42;78.05;100192.00;10349796;28;20153;-63
2023/12/27 15:18:18;;;;;;;6.47;2.90;;;;;;;10.40;77.71;100174.44;10338260;28;20104;-61
2023/12/27 15:23:22;;;;;;;5.40;3.40;;;;;;;10.46;77.58;100189.91;10338692;28;20147;-62
2023/12/27 15:28:29;;;;;;;5.72;2.67;;;;;;;10.37;77.47;100161.41;10339547;28;20065;-62
2023/12/27 15:33:31;;;;;;;61.28;43.10;;;;;;;10.40;77.68;100177.09;10337380;28;20049;-62
2023/12/27 15:38:33;;;;;;;14.23;9.50;;;;;;;10.36;78.51;100170.38;10330759;28;20665;-62
2023/12/27 15:43:35;;;;;;;7.55;3.90;;;;;;;10.30;77.97;100165.47;10328343;28;20041;-62
2023/12/27 15:48:40;;;;;;;3.40;2.60;;;;;;;10.18;78.24;100173.50;10347898;28;20056;-61
2023/12/27 15:53:43;;;;;;;5.32;2.22;;;;;;;10.04;77.46;100163.97;10337433;28;20061;-62
2023/12/27 15:58:44;;;;;;;5.93;2.88;;;;;;;10.09;78.54;100156.47;10345400;28;20050;-63
2023/12/27 16:03:51;;;;;;;4.32;3.03;;;;;;;10.13;77.89;100158.88;10335554;28;20046;-63
2023/12/27 16:08:53;;;;;;;4.07;3.00;;;;;;;10.08;77.92;100161.91;10331138;28;20049;-63
2023/12/27 16:13:56;;;;;;;8.50;3.22;;;;;;;10.06;77.75;100153.22;10326397;28;20136;-62
2023/12/27 16:18:57;;;;;;;7.55;4.15;;;;;;;10.07;77.16;100144.25;10340202;28;20062;-62
2023/12/27 16:24:00;;;;;;;17.02;15.43;;;;;;;10.07;76.88;100133.59;10335952;28;20146;-63
2023/12/27 16:29:01;;;;;;;4.32;2.92;;;;;;;10.06;76.92;100139.91;10337565;28;21041;-64
2023/12/27 16:34:03;;;;;;;13.05;10.05;;;;;;;10.09;75.91;100129.03;10334883;28;20174;-62
2023/12/27 16:39:05;;;;;;;5.88;3.05;;;;;;;10.00;75.86;100116.47;10339393;28;20059;-62
2023/12/27 16:44:06;;;;;;;8.63;6.05;;;;;;;9.96;76.04;100128.31;10326730;28;20065;-62
2023/12/27 16:49:08;;;;;;;27.65;24.90;;;;;;;9.93;76.20;100109.94;10339218;28;20053;-62
2023/12/27 16:54:09;;;;;;;6.03;4.70;;;;;;;9.93;75.33;100121.41;10345064;28;20046;-62
2023/12/27 16:59:14;;;;;;;6.07;3.28;;;;;;;9.86;75.73;100118.41;10349540;28;20431;-62
2023/12/27 17:04:15;;;;;;;7.55;4.03;;;;;;;9.80;74.73;100113.56;10341775;28;20050;-62
2023/12/27 17:09:21;;;;;;;7.77;4.20;;;;;;;9.81;75.42;100106.44;10332958;28;20056;-62
2023/12/27 17:14:22;;;;;;;20.15;15.35;;;;;;;9.60;74.21;100066.47;10324697;28;20153;-62
2023/12/27 17:19:24;;;;;;;14.45;10.20;;;;;;;9.63;74.44;100093.66;10338218;28;20078;-62
2023/12/27 17:24:26;;;;;;;19.70;13.63;;;;;;;9.64;74.38;100094.50;10361778;28;20474;-63
2023/12/27 17:29:28;;;;;;;12.25;7.40;;;;;;;9.51;74.47;100087.47;10333275;28;20053;-63
2023/12/27 17:34:30;;;;;;;19.17;14.68;;;;;;;9.59;73.72;100101.97;10342752;28;20061;-63
2023/12/27 17:39:32;;;;;;;7.20;5.22;;;;;;;9.46;74.55;100094.97;10351560;28;20075;-63
2023/12/27 17:44:34;;;;;;;4.72;2.55;;;;;;;9.47;74.59;100099.34;10339783;28;20639;-63
2023/12/27 17:49:36;;;;;;;6.13;3.25;;;;;;;9.39;74.26;100075.16;10353032;28;20215;-63
2023/12/27 17:54:37;;;;;;;4.30;3.42;;;;;;;9.34;74.41;100074.69;10347112;28;20054;-61
2023/12/27 17:59:40;;;;;;;6.05;3.95;;;;;;;9.37;74.40;100082.44;10345622;28;20092;-65
2023/12/27 18:04:43;;;;;;;6.35;3.63;;;;;;;9.38;74.63;100089.41;10355829;28;20059;-63
2023/12/27 18:09:44;;;;;;;3.85;2.78;;;;;;;9.41;74.46;100088.34;10362685;28;20054;-63
2023/12/27 18:14:52;;;;;;;5.65;3.00;;;;;;;9.40;74.47;100076.88;10336786;28;20232;-63
2023/12/27 18:19:54;;;;;;;6.03;3.55;;;;;;;9.40;73.77;100076.88;10349911;28;20049;-63
2023/12/27 18:24:56;;;;;;;6.32;4.03;;;;;;;9.33;73.78;100049.09;10341985;28;20060;-62
2023/12/27 18:29:58;;;;;;;4.40;3.53;;;;;;;9.37;74.02;100058.50;10357472;28;20058;-62
2023/12/27 18:34:59;;;;;;;7.38;3.78;;;;;;;9.36;74.09;100059.47;10345020;28;20550;-63
2023/12/27 18:40:02;;;;;;;4.38;3.38;;;;;;;9.39;74.03;100061.88;10344697;28;20088;-64
2023/12/27 18:45:04;;;;;;;5.85;3.63;;;;;;;9.32;73.39;100058.00;10342888;28;20060;-64
2023/12/27 18:50:06;;;;;;;6.50;4.00;;;;;;;9.20;74.00;100044.75;10345315;28;20057;-68
2023/12/27 18:55:08;;;;;;;6.35;3.35;;;;;;;9.25;74.22;100047.03;10339620;28;20131;-64
2023/12/27 19:00:13;;;;;;;5.07;3.42;;;;;;;9.28;74.31;100041.47;10339941;28;20516;-63
2023/12/27 19:05:17;;;;;;;4.25;3.20;;;;;;;9.30;74.06;100044.03;10343639;28;20056;-65
2023/12/27 19:10:18;;;;;;;6.40;4.03;;;;;;;9.31;74.98;100041.25;10339272;28;20545;-61
2023/12/27 19:15:20;;;;;;;5.70;3.75;;;;;;;9.32;74.52;100036.75;10334956;28;20419;-63
2023/12/27 19:20:22;;;;;;;4.95;4.00;;;;;;;9.33;74.68;100038.47;10341257;28;20129;-63
2023/12/27 19:25:23;;;;;;;7.35;5.45;;;;;;;9.37;75.15;100035.44;10343594;28;20049;-62
2023/12/27 19:30:25;;;;;;;8.15;4.40;;;;;;;9.28;74.94;100024.72;10339005;28;20121;-63
2023/12/27 19:35:26;;;;;;;7.22;4.90;;;;;;;9.36;75.40;100043.53;10336609;28;20068;-63
2023/12/27 19:40:28;;;;;;;13.98;8.85;;;;;;;9.37;74.81;100037.25;10334100;28;20135;-63
2023/12/27 19:45:30;;;;;;;10.75;6.85;;;;;;;9.37;74.82;100046.06;10330790;28;20125;-63
2023/12/27 19:50:31;;;;;;;10.27;6.85;;;;;;;9.30;74.74;100044.84;10338437;28;20135;-64
2023/12/27 19:55:33;;;;;;;7.65;5.38;;;;;;;9.34;74.79;100053.44;10355965;28;20042;-63
2023/12/27 20:00:34;;;;;;;6.40;4.40;;;;;;;9.34;75.27;100062.25;10339354;28;20057;-63
2023/12/27 20:05:36;;;;;;;7.15;5.00;;;;;;;9.14;75.52;100034.59;10342240;28;20947;-63
2023/12/27 20:10:37;;;;;;;7.90;4.53;;;;;;;9.28;74.95;100064.56;10348267;28;20050;-62
2023/12/27 20:15:39;;;;;;;5.63;4.82;;;;;;;9.15;74.96;100065.47;10332936;28;20090;-63
2023/12/27 20:20:49;;;;;;;7.47;5.05;;;;;;;9.12;75.45;100068.38;10336513;28;20131;-63
2023/12/27 20:25:51;;;;;;;6.35;5.40;;;;;;;9.07;75.58;100059.94;10342694;28;20057;-64
2023/12/27 20:30:53;;;;;;;7.25;4.47;;;;;;;9.07;76.27;100059.06;10349027;28;20053;-64
2023/12/27 20:35:57;;;;;;;7.05;5.40;;;;;;;8.99;77.17;100038.44;10348214;28;20057;-66
2023/12/27 20:40:59;;;;;;;6.97;4.78;;;;;;;9.04;76.61;100046.91;10348992;28;20065;-65
2023/12/27 20:46:01;;;;;;;5.78;4.93;;;;;;;8.89;77.47;100035.66;10343225;28;20045;-66
2023/12/27 20:51:03;;;;;;;7.13;5.53;;;;;;;8.98;76.70;100065.97;10354639;28;20060;-64
2023/12/27 20:56:06;;;;;;;5.93;4.45;;;;;;;8.77;76.80;100065.78;10344399;28;20048;-65
2023/12/27 21:01:07;;;;;;;7.07;5.32;;;;;;;8.69;77.64;100062.84;10303268;28;20053;-64
2023/12/27 21:06:15;;;;;;;9.43;5.47;;;;;;;8.67;78.64;100076.25;10341614;28;20045;-65
2023/12/27 21:11:16;;;;;;;8.15;6.45;;;;;;;8.58;78.76;100064.50;10344259;28;20042;-65
2023/12/27 21:16:23;;;;;;;6.40;5.05;;;;;;;8.52;79.74;100062.31;10339992;28;20068;-64
2023/12/27 21:21:26;;;;;;;6.35;4.93;;;;;;;8.44;80.06;100052.28;10345971;28;20180;-66
2023/12/27 21:26:28;;;;;;;7.25;4.75;;;;;;;8.44;80.67;100049.63;10347477;28;20046;-65
2023/12/27 21:31:32;;;;;;;7.25;6.13;;;;;;;8.37;81.04;100031.63;10343056;28;20056;-63
2023/12/27 21:36:34;;;;;;;6.47;4.97;;;;;;;8.25;81.05;100020.13;10344074;28;20060;-64
2023/12/27 21:41:45;;;;;;;6.45;5.05;;;;;;;8.36;80.26;100037.88;10341375;28;20037;-66
2023/12/27 21:46:47;;;;;;;7.30;4.57;;;;;;;8.14;81.35;100007.66;10343959;28;20057;-70
2023/12/27 21:51:49;;;;;;;6.07;4.90;;;;;;;8.25;80.71;100022.75;10312669;28;22184;-65
2023/12/27 21:56:52;;;;;;;6.18;4.78;;;;;;;8.20;79.62;100022.28;10341485;28;20145;-64
2023/12/27 22:01:54;;;;;;;6.00;4.25;;;;;;;8.23;79.59;100043.25;10342323;28;20058;-65
2023/12/27 22:06:56;;;;;;;6.35;5.00;;;;;;;8.24;79.93;100035.19;10334554;28;20058;-65
2023/12/27 22:11:58;;;;;;;9.55;6.60;;;;;;;8.26;79.19;100048.34;10340745;28;20684;-65
2023/12/27 22:16:59;;;;;;;6.30;4.57;;;;;;;8.18;79.97;100045.38;10341803;28;20041;-65
2023/12/27 22:22:01;;;;;;;8.02;5.80;;;;;;;8.11;80.14;100037.88;10343595;28;20056;-65
2023/12/27 22:27:02;;;;;;;6.55;4.88;;;;;;;8.15;80.14;100022.59;10339018;28;20090;-65
2023/12/27 22:32:04;;;;;;;6.63;4.72;;;;;;;8.09;80.07;100029.22;10344657;28;20061;-65
2023/12/27 22:37:06;;;;;;;6.32;4.60;;;;;;;8.08;80.31;100008.13;10344948;28;20198;-65
2023/12/27 22:42:10;;;;;;;7.07;5.25;;;;;;;8.09;79.58;100031.00;10336276;28;20053;-64
2023/12/27 22:47:11;;;;;;;9.57;5.50;;;;;;;8.01;79.52;100028.91;10338920;28;20135;-64
2023/12/27 22:52:15;;;;;;;6.57;4.68;;;;;;;8.03;78.71;100050.88;10342539;28;20077;-62
2023/12/27 22:57:16;;;;;;;7.95;5.38;;;;;;;7.94;78.32;100032.97;10341563;28;20228;-67
2023/12/27 23:02:17;;;;;;;6.35;4.93;;;;;;;8.01;77.73;100034.22;10333137;28;20679;-65
2023/12/27 23:07:20;;;;;;;6.13;4.78;;;;;;;7.89;78.26;100027.16;10351755;28;20069;-63
2023/12/27 23:12:22;;;;;;;6.55;5.70;;;;;;;7.91;77.83;100038.50;10339465;28;20132;-64
2023/12/27 23:17:24;;;;;;;6.85;4.55;;;;;;;7.91;77.34;100017.28;10355521;28;20049;-65
2023/12/27 23:22:27;;;;;;;5.47;4.63;;;;;;;8.06;77.25;100045.34;10338074;28;20755;-64